sensor_id;sensor_type;location;lat;lon;timestamp;P1;durP1;ratioP1;P2;durP2;ratioP2
73675;SDS011;61975;48.660;10.164;2023-09-19T00:01:39;2.78;;;0.80;;
73675;SDS011;61975;48.660;10.164;2023-09-19T00:04:05;2.60;;;0.82;;
73675;SDS011;61975;48.660;10.164;2023-09-19T00:06:38;2.45;;;0.70;;
73675;SDS011;61975;48.660;10.164;2023-09-19T00:09:03;2.23;;;0.60;;
73675;SDS011;61975;48.660;10.164;2023-09-19T00:11:29;2.72;;;0.60;;
73675;SDS011;61975;48.660;10.164;2023-09-19T00:13:55;3.95;;;0.70;;
73675;SDS011;61975;48.660;10.164;2023-09-19T00:16:21;2.58;;;0.82;;
73675;SDS011;61975;48.660;10.164;2023-09-19T00:18:47;3.23;;;0.80;;
73675;SDS011;61975;48.660;10.164;2023-09-19T00:21:14;2.92;;;0.65;;
73675;SDS011;61975;48.660;10.164;2023-09-19T00:23:40;2.20;;;0.70;;
73675;SDS011;61975;48.660;10.164;2023-09-19T00:26:06;2.40;;;0.70;;
73675;SDS011;61975;48.660;10.164;2023-09-19T00:28:31;3.40;;;0.70;;
73675;SDS011;61975;48.660;10.164;2023-09-19T00:30:57;3.33;;;0.80;;
73675;SDS011;61975;48.660;10.164;2023-09-19T00:33:26;3.95;;;0.75;;
73675;SDS011;61975;48.660;10.164;2023-09-19T00:35:52;2.80;;;0.60;;
73675;SDS011;61975;48.660;10.164;2023-09-19T00:38:19;3.80;;;0.73;;
73675;SDS011;61975;48.660;10.164;2023-09-19T00:40:51;4.40;;;0.90;;
73675;SDS011;61975;48.660;10.164;2023-09-19T00:43:18;2.75;;;0.77;;
73675;SDS011;61975;48.660;10.164;2023-09-19T00:45:45;2.60;;;0.60;;
73675;SDS011;61975;48.660;10.164;2023-09-19T00:48:13;2.50;;;0.70;;
73675;SDS011;61975;48.660;10.164;2023-09-19T00:50:43;2.05;;;0.50;;
73675;SDS011;61975;48.660;10.164;2023-09-19T00:53:13;2.20;;;0.70;;
73675;SDS011;61975;48.660;10.164;2023-09-19T00:55:43;2.80;;;0.50;;
73675;SDS011;61975;48.660;10.164;2023-09-19T00:58:09;2.70;;;0.70;;
73675;SDS011;61975;48.660;10.164;2023-09-19T01:00:35;2.97;;;0.60;;
73675;SDS011;61975;48.660;10.164;2023-09-19T01:03:01;3.58;;;0.70;;
73675;SDS011;61975;48.660;10.164;2023-09-19T01:05:27;1.90;;;0.50;;
73675;SDS011;61975;48.660;10.164;2023-09-19T01:07:53;3.13;;;0.52;;
73675;SDS011;61975;48.660;10.164;2023-09-19T01:10:18;2.50;;;0.50;;
73675;SDS011;61975;48.660;10.164;2023-09-19T01:31:44;2.50;;;0.50;;
73675;SDS011;61975;48.660;10.164;2023-09-19T01:34:10;2.15;;;0.63;;
73675;SDS011;61975;48.660;10.164;2023-09-19T01:36:36;2.13;;;0.50;;
73675;SDS011;61975;48.660;10.164;2023-09-19T01:39:07;1.98;;;0.50;;
73675;SDS011;61975;48.660;10.164;2023-09-19T01:42:00;3.45;;;0.60;;
73675;SDS011;61975;48.660;10.164;2023-09-19T01:47:19;1.97;;;0.50;;
73675;SDS011;61975;48.660;10.164;2023-09-19T01:50:38;1.70;;;0.50;;
73675;SDS011;61975;48.660;10.164;2023-09-19T01:52:49;4.10;;;0.55;;
73675;SDS011;61975;48.660;10.164;2023-09-19T01:55:23;1.50;;;0.30;;
73675;SDS011;61975;48.660;10.164;2023-09-19T02:00:48;1.80;;;0.37;;
73675;SDS011;61975;48.660;10.164;2023-09-19T02:03:16;2.10;;;0.40;;
73675;SDS011;61975;48.660;10.164;2023-09-19T02:05:47;1.85;;;0.47;;
73675;SDS011;61975;48.660;10.164;2023-09-19T02:08:16;2.45;;;0.60;;
73675;SDS011;61975;48.660;10.164;2023-09-19T02:10:44;2.53;;;0.57;;
73675;SDS011;61975;48.660;10.164;2023-09-19T02:13:14;2.65;;;0.50;;
73675;SDS011;61975;48.660;10.164;2023-09-19T02:15:44;1.85;;;0.50;;
73675;SDS011;61975;48.660;10.164;2023-09-19T02:18:10;2.20;;;0.50;;
73675;SDS011;61975;48.660;10.164;2023-09-19T02:20:39;2.03;;;0.50;;
73675;SDS011;61975;48.660;10.164;2023-09-19T02:23:05;2.83;;;0.50;;
73675;SDS011;61975;48.660;10.164;2023-09-19T02:25:31;1.58;;;0.40;;
73675;SDS011;61975;48.660;10.164;2023-09-19T02:27:57;1.77;;;0.47;;
73675;SDS011;61975;48.660;10.164;2023-09-19T02:30:24;2.35;;;0.50;;
73675;SDS011;61975;48.660;10.164;2023-09-19T02:32:50;3.22;;;0.52;;
73675;SDS011;61975;48.660;10.164;2023-09-19T02:35:16;2.30;;;0.60;;
73675;SDS011;61975;48.660;10.164;2023-09-19T02:37:41;2.10;;;0.50;;
73675;SDS011;61975;48.660;10.164;2023-09-19T02:40:07;1.80;;;0.50;;
73675;SDS011;61975;48.660;10.164;2023-09-19T02:42:52;2.13;;;0.50;;
73675;SDS011;61975;48.660;10.164;2023-09-19T02:45:19;1.98;;;0.50;;
73675;SDS011;61975;48.660;10.164;2023-09-19T02:47:45;1.90;;;0.50;;
73675;SDS011;61975;48.660;10.164;2023-09-19T02:50:12;1.80;;;0.40;;
73675;SDS011;61975;48.660;10.164;2023-09-19T02:52:38;1.92;;;0.40;;
73675;SDS011;61975;48.660;10.164;2023-09-19T02:55:08;1.93;;;0.40;;
73675;SDS011;61975;48.660;10.164;2023-09-19T02:57:34;2.88;;;0.57;;
73675;SDS011;61975;48.660;10.164;2023-09-19T03:00:06;2.97;;;0.57;;
73675;SDS011;61975;48.660;10.164;2023-09-19T03:02:33;2.10;;;0.40;;
73675;SDS011;61975;48.660;10.164;2023-09-19T03:04:59;2.67;;;0.50;;
73675;SDS011;61975;48.660;10.164;2023-09-19T03:07:25;1.53;;;0.40;;
73675;SDS011;61975;48.660;10.164;2023-09-19T03:09:51;2.23;;;0.50;;
73675;SDS011;61975;48.660;10.164;2023-09-19T03:12:18;2.08;;;0.60;;
73675;SDS011;61975;48.660;10.164;2023-09-19T03:14:43;1.63;;;0.47;;
73675;SDS011;61975;48.660;10.164;2023-09-19T03:17:08;2.60;;;0.57;;
73675;SDS011;61975;48.660;10.164;2023-09-19T03:19:34;1.80;;;0.40;;
73675;SDS011;61975;48.660;10.164;2023-09-19T03:21:59;1.77;;;0.50;;
73675;SDS011;61975;48.660;10.164;2023-09-19T03:24:25;3.00;;;0.88;;
73675;SDS011;61975;48.660;10.164;2023-09-19T03:26:51;2.00;;;0.50;;
73675;SDS011;61975;48.660;10.164;2023-09-19T03:29:17;2.42;;;0.60;;
73675;SDS011;61975;48.660;10.164;2023-09-19T03:31:43;2.42;;;0.50;;
73675;SDS011;61975;48.660;10.164;2023-09-19T03:34:08;2.10;;;0.77;;
73675;SDS011;61975;48.660;10.164;2023-09-19T03:36:34;1.90;;;0.40;;
73675;SDS011;61975;48.660;10.164;2023-09-19T03:39:00;1.77;;;0.50;;
73675;SDS011;61975;48.660;10.164;2023-09-19T03:41:26;3.92;;;0.63;;
73675;SDS011;61975;48.660;10.164;2023-09-19T03:43:52;3.13;;;0.60;;
73675;SDS011;61975;48.660;10.164;2023-09-19T03:46:18;1.83;;;0.40;;
73675;SDS011;61975;48.660;10.164;2023-09-19T03:48:43;1.87;;;0.40;;
73675;SDS011;61975;48.660;10.164;2023-09-19T03:51:09;1.67;;;0.47;;
73675;SDS011;61975;48.660;10.164;2023-09-19T03:53:34;2.23;;;0.60;;
73675;SDS011;61975;48.660;10.164;2023-09-19T03:56:00;2.30;;;0.60;;
73675;SDS011;61975;48.660;10.164;2023-09-19T03:58:26;2.75;;;0.60;;
73675;SDS011;61975;48.660;10.164;2023-09-19T04:00:54;2.43;;;0.60;;
73675;SDS011;61975;48.660;10.164;2023-09-19T04:03:20;2.33;;;0.40;;
73675;SDS011;61975;48.660;10.164;2023-09-19T04:05:48;2.53;;;0.60;;
73675;SDS011;61975;48.660;10.164;2023-09-19T04:08:14;2.65;;;0.57;;
73675;SDS011;61975;48.660;10.164;2023-09-19T04:10:42;1.80;;;0.53;;
73675;SDS011;61975;48.660;10.164;2023-09-19T04:13:08;1.88;;;0.50;;
73675;SDS011;61975;48.660;10.164;2023-09-19T04:15:34;2.30;;;0.60;;
73675;SDS011;61975;48.660;10.164;2023-09-19T04:17:59;2.10;;;0.60;;
73675;SDS011;61975;48.660;10.164;2023-09-19T04:20:24;2.00;;;0.50;;
73675;SDS011;61975;48.660;10.164;2023-09-19T04:22:50;2.10;;;0.47;;
73675;SDS011;61975;48.660;10.164;2023-09-19T04:25:16;2.58;;;0.70;;
73675;SDS011;61975;48.660;10.164;2023-09-19T04:27:41;2.90;;;0.70;;
73675;SDS011;61975;48.660;10.164;2023-09-19T04:30:07;1.90;;;0.60;;
73675;SDS011;61975;48.660;10.164;2023-09-19T04:32:40;1.92;;;0.50;;
73675;SDS011;61975;48.660;10.164;2023-09-19T04:35:06;2.25;;;0.63;;
73675;SDS011;61975;48.660;10.164;2023-09-19T04:37:39;3.10;;;0.60;;
73675;SDS011;61975;48.660;10.164;2023-09-19T04:40:07;2.97;;;0.70;;
73675;SDS011;61975;48.660;10.164;2023-09-19T04:42:37;3.15;;;0.50;;
73675;SDS011;61975;48.660;10.164;2023-09-19T04:45:04;3.20;;;0.80;;
73675;SDS011;61975;48.660;10.164;2023-09-19T04:47:30;2.88;;;0.80;;
73675;SDS011;61975;48.660;10.164;2023-09-19T04:49:55;2.10;;;0.50;;
73675;SDS011;61975;48.660;10.164;2023-09-19T04:52:21;4.07;;;0.70;;
73675;SDS011;61975;48.660;10.164;2023-09-19T04:54:47;2.50;;;0.63;;
73675;SDS011;61975;48.660;10.164;2023-09-19T04:57:13;3.20;;;0.80;;
73675;SDS011;61975;48.660;10.164;2023-09-19T04:59:38;4.77;;;0.80;;
73675;SDS011;61975;48.660;10.164;2023-09-19T05:02:06;3.85;;;0.88;;
73675;SDS011;61975;48.660;10.164;2023-09-19T05:04:33;3.90;;;0.80;;
73675;SDS011;61975;48.660;10.164;2023-09-19T05:06:58;3.70;;;1.05;;
73675;SDS011;61975;48.660;10.164;2023-09-19T05:09:23;2.87;;;0.77;;
73675;SDS011;61975;48.660;10.164;2023-09-19T05:11:49;4.47;;;0.95;;
73675;SDS011;61975;48.660;10.164;2023-09-19T05:14:16;3.33;;;0.87;;
73675;SDS011;61975;48.660;10.164;2023-09-19T05:16:41;3.03;;;0.70;;
73675;SDS011;61975;48.660;10.164;2023-09-19T05:19:07;2.97;;;0.80;;
73675;SDS011;61975;48.660;10.164;2023-09-19T05:21:36;2.20;;;0.73;;
73675;SDS011;61975;48.660;10.164;2023-09-19T05:24:04;2.92;;;0.80;;
73675;SDS011;61975;48.660;10.164;2023-09-19T05:26:31;3.80;;;0.90;;
73675;SDS011;61975;48.660;10.164;2023-09-19T05:28:57;2.38;;;0.70;;
73675;SDS011;61975;48.660;10.164;2023-09-19T05:31:22;3.07;;;0.90;;
73675;SDS011;61975;48.660;10.164;2023-09-19T05:33:49;3.25;;;0.90;;
73675;SDS011;61975;48.660;10.164;2023-09-19T05:36:15;4.67;;;1.00;;
73675;SDS011;61975;48.660;10.164;2023-09-19T05:38:41;3.25;;;0.85;;
73675;SDS011;61975;48.660;10.164;2023-09-19T05:41:08;4.78;;;1.10;;
73675;SDS011;61975;48.660;10.164;2023-09-19T05:43:35;3.30;;;1.07;;
73675;SDS011;61975;48.660;10.164;2023-09-19T05:46:02;5.20;;;1.00;;
73675;SDS011;61975;48.660;10.164;2023-09-19T05:48:28;3.40;;;1.20;;
73675;SDS011;61975;48.660;10.164;2023-09-19T05:50:53;3.43;;;1.13;;
73675;SDS011;61975;48.660;10.164;2023-09-19T05:53:19;4.23;;;1.30;;
73675;SDS011;61975;48.660;10.164;2023-09-19T05:55:44;6.28;;;1.00;;
73675;SDS011;61975;48.660;10.164;2023-09-19T05:58:10;4.30;;;1.17;;
73675;SDS011;61975;48.660;10.164;2023-09-19T06:00:39;3.95;;;1.00;;
73675;SDS011;61975;48.660;10.164;2023-09-19T06:03:06;4.88;;;1.13;;
73675;SDS011;61975;48.660;10.164;2023-09-19T06:05:32;6.97;;;1.20;;
73675;SDS011;61975;48.660;10.164;2023-09-19T06:07:57;2.70;;;0.80;;
73675;SDS011;61975;48.660;10.164;2023-09-19T06:10:32;4.60;;;1.10;;
73675;SDS011;61975;48.660;10.164;2023-09-19T06:13:03;3.75;;;1.05;;
73675;SDS011;61975;48.660;10.164;2023-09-19T06:15:30;5.53;;;1.00;;
73675;SDS011;61975;48.660;10.164;2023-09-19T06:17:58;2.83;;;0.82;;
73675;SDS011;61975;48.660;10.164;2023-09-19T06:20:25;3.00;;;0.83;;
73675;SDS011;61975;48.660;10.164;2023-09-19T06:22:51;2.30;;;0.70;;
73675;SDS011;61975;48.660;10.164;2023-09-19T06:25:17;2.38;;;0.90;;
73675;SDS011;61975;48.660;10.164;2023-09-19T06:30:13;3.72;;;0.90;;
73675;SDS011;61975;48.660;10.164;2023-09-19T06:32:39;4.23;;;1.00;;
73675;SDS011;61975;48.660;10.164;2023-09-19T06:35:09;4.00;;;0.90;;
73675;SDS011;61975;48.660;10.164;2023-09-19T06:37:36;3.50;;;0.93;;
73675;SDS011;61975;48.660;10.164;2023-09-19T06:40:05;2.80;;;0.98;;
73675;SDS011;61975;48.660;10.164;2023-09-19T06:42:38;3.33;;;0.82;;
73675;SDS011;61975;48.660;10.164;2023-09-19T06:45:04;2.40;;;0.80;;
73675;SDS011;61975;48.660;10.164;2023-09-19T06:47:30;5.97;;;1.38;;
73675;SDS011;61975;48.660;10.164;2023-09-19T06:49:56;3.07;;;0.90;;
73675;SDS011;61975;48.660;10.164;2023-09-19T06:52:21;4.10;;;0.90;;
73675;SDS011;61975;48.660;10.164;2023-09-19T06:54:47;2.65;;;0.90;;
73675;SDS011;61975;48.660;10.164;2023-09-19T06:57:15;2.60;;;0.90;;
73675;SDS011;61975;48.660;10.164;2023-09-19T06:59:41;2.13;;;0.70;;
73675;SDS011;61975;48.660;10.164;2023-09-19T07:02:06;2.40;;;0.80;;
73675;SDS011;61975;48.660;10.164;2023-09-19T07:04:31;3.10;;;0.85;;
73675;SDS011;61975;48.660;10.164;2023-09-19T07:06:57;3.23;;;0.90;;
73675;SDS011;61975;48.660;10.164;2023-09-19T07:09:23;2.50;;;0.90;;
73675;SDS011;61975;48.660;10.164;2023-09-19T07:11:48;5.70;;;1.00;;
73675;SDS011;61975;48.660;10.164;2023-09-19T07:14:16;3.70;;;0.90;;
73675;SDS011;61975;48.660;10.164;2023-09-19T07:16:41;2.60;;;0.70;;
73675;SDS011;61975;48.660;10.164;2023-09-19T07:19:09;2.40;;;0.60;;
73675;SDS011;61975;48.660;10.164;2023-09-19T07:21:35;3.97;;;0.80;;
73675;SDS011;61975;48.660;10.164;2023-09-19T07:24:07;2.65;;;0.90;;
73675;SDS011;61975;48.660;10.164;2023-09-19T07:26:33;2.83;;;0.88;;
73675;SDS011;61975;48.660;10.164;2023-09-19T07:28:58;2.50;;;0.80;;
73675;SDS011;61975;48.660;10.164;2023-09-19T07:31:23;2.07;;;0.67;;
73675;SDS011;61975;48.660;10.164;2023-09-19T07:33:50;2.60;;;0.80;;
73675;SDS011;61975;48.660;10.164;2023-09-19T07:36:15;3.47;;;0.70;;
73675;SDS011;61975;48.660;10.164;2023-09-19T07:38:41;2.53;;;0.90;;
73675;SDS011;61975;48.660;10.164;2023-09-19T07:41:07;2.60;;;0.70;;
73675;SDS011;61975;48.660;10.164;2023-09-19T07:43:36;1.88;;;0.60;;
73675;SDS011;61975;48.660;10.164;2023-09-19T07:46:08;2.63;;;0.80;;
73675;SDS011;61975;48.660;10.164;2023-09-19T07:48:37;3.70;;;0.82;;
73675;SDS011;61975;48.660;10.164;2023-09-19T07:51:06;2.40;;;0.60;;
73675;SDS011;61975;48.660;10.164;2023-09-19T07:53:33;2.17;;;0.60;;
73675;SDS011;61975;48.660;10.164;2023-09-19T07:56:05;3.88;;;0.70;;
73675;SDS011;61975;48.660;10.164;2023-09-19T07:58:33;1.90;;;0.52;;
73675;SDS011;61975;48.660;10.164;2023-09-19T08:01:02;2.10;;;0.65;;
73675;SDS011;61975;48.660;10.164;2023-09-19T08:03:29;2.70;;;0.50;;
73675;SDS011;61975;48.660;10.164;2023-09-19T08:05:55;1.70;;;0.47;;
73675;SDS011;61975;48.660;10.164;2023-09-19T08:08:22;2.33;;;0.60;;
73675;SDS011;61975;48.660;10.164;2023-09-19T08:10:52;1.83;;;0.60;;
73675;SDS011;61975;48.660;10.164;2023-09-19T08:13:18;1.70;;;0.40;;
73675;SDS011;61975;48.660;10.164;2023-09-19T08:15:44;1.85;;;0.40;;
73675;SDS011;61975;48.660;10.164;2023-09-19T08:18:09;2.27;;;0.60;;
73675;SDS011;61975;48.660;10.164;2023-09-19T08:20:37;1.83;;;0.50;;
73675;SDS011;61975;48.660;10.164;2023-09-19T08:23:03;2.03;;;0.57;;
73675;SDS011;61975;48.660;10.164;2023-09-19T08:25:29;2.65;;;0.60;;
73675;SDS011;61975;48.660;10.164;2023-09-19T08:27:54;2.73;;;0.67;;
73675;SDS011;61975;48.660;10.164;2023-09-19T08:30:23;1.77;;;0.52;;
73675;SDS011;61975;48.660;10.164;2023-09-19T08:32:58;2.80;;;0.65;;
73675;SDS011;61975;48.660;10.164;2023-09-19T08:35:28;2.65;;;0.80;;
73675;SDS011;61975;48.660;10.164;2023-09-19T08:37:53;1.93;;;0.70;;
73675;SDS011;61975;48.660;10.164;2023-09-19T08:40:20;3.28;;;0.88;;
73675;SDS011;61975;48.660;10.164;2023-09-19T08:42:47;2.20;;;0.80;;
73675;SDS011;61975;48.660;10.164;2023-09-19T08:45:16;3.00;;;0.90;;
73675;SDS011;61975;48.660;10.164;2023-09-19T08:48:44;2.40;;;0.90;;
73675;SDS011;61975;48.660;10.164;2023-09-19T08:50:52;2.33;;;1.00;;
73675;SDS011;61975;48.660;10.164;2023-09-19T08:56:28;3.95;;;1.10;;
73675;SDS011;61975;48.660;10.164;2023-09-19T08:58:59;2.92;;;1.00;;
73675;SDS011;61975;48.660;10.164;2023-09-19T09:01:27;2.97;;;1.20;;
73675;SDS011;61975;48.660;10.164;2023-09-19T09:03:54;2.70;;;1.00;;
73675;SDS011;61975;48.660;10.164;2023-09-19T09:06:20;2.83;;;0.80;;
73675;SDS011;61975;48.660;10.164;2023-09-19T09:08:48;2.53;;;0.90;;
73675;SDS011;61975;48.660;10.164;2023-09-19T09:11:15;3.85;;;1.08;;
73675;SDS011;61975;48.660;10.164;2023-09-19T09:13:43;2.70;;;1.10;;
73675;SDS011;61975;48.660;10.164;2023-09-19T09:16:09;2.47;;;1.10;;
73675;SDS011;61975;48.660;10.164;2023-09-19T09:18:35;3.60;;;1.20;;
73675;SDS011;61975;48.660;10.164;2023-09-19T09:21:01;2.67;;;1.13;;
73675;SDS011;61975;48.660;10.164;2023-09-19T09:23:26;3.50;;;1.35;;
73675;SDS011;61975;48.660;10.164;2023-09-19T09:25:55;2.80;;;1.13;;
73675;SDS011;61975;48.660;10.164;2023-09-19T09:28:25;2.47;;;1.10;;
73675;SDS011;61975;48.660;10.164;2023-09-19T09:30:53;2.90;;;1.08;;
73675;SDS011;61975;48.660;10.164;2023-09-19T09:33:19;2.85;;;1.05;;
73675;SDS011;61975;48.660;10.164;2023-09-19T09:35:58;3.08;;;1.17;;
73675;SDS011;61975;48.660;10.164;2023-09-19T09:38:28;2.27;;;0.90;;
73675;SDS011;61975;48.660;10.164;2023-09-19T09:40:57;2.80;;;1.00;;
73675;SDS011;61975;48.660;10.164;2023-09-19T09:43:33;3.13;;;1.10;;
73675;SDS011;61975;48.660;10.164;2023-09-19T09:46:19;4.63;;;1.10;;
73675;SDS011;61975;48.660;10.164;2023-09-19T09:48:56;2.50;;;0.90;;
73675;SDS011;61975;48.660;10.164;2023-09-19T09:51:48;2.97;;;1.20;;
73675;SDS011;61975;48.660;10.164;2023-09-19T09:54:28;3.00;;;0.93;;
73675;SDS011;61975;48.660;10.164;2023-09-19T09:57:04;2.97;;;1.00;;
73675;SDS011;61975;48.660;10.164;2023-09-19T10:02:17;3.30;;;1.23;;
73675;SDS011;61975;48.660;10.164;2023-09-19T10:04:50;3.00;;;1.00;;
73675;SDS011;61975;48.660;10.164;2023-09-19T10:07:28;2.67;;;1.00;;
73675;SDS011;61975;48.660;10.164;2023-09-19T10:09:58;3.63;;;1.08;;
73675;SDS011;61975;48.660;10.164;2023-09-19T10:12:31;2.63;;;0.93;;
73675;SDS011;61975;48.660;10.164;2023-09-19T10:15:00;3.72;;;1.10;;
73675;SDS011;61975;48.660;10.164;2023-09-19T10:17:29;2.50;;;0.83;;
73675;SDS011;61975;48.660;10.164;2023-09-19T10:19:55;2.83;;;0.98;;
73675;SDS011;61975;48.660;10.164;2023-09-19T10:22:26;3.03;;;1.13;;
73675;SDS011;61975;48.660;10.164;2023-09-19T10:24:56;3.05;;;1.00;;
73675;SDS011;61975;48.660;10.164;2023-09-19T10:27:22;2.88;;;1.10;;
73675;SDS011;61975;48.660;10.164;2023-09-19T10:29:51;2.77;;;0.90;;
73675;SDS011;61975;48.660;10.164;2023-09-19T10:32:22;2.30;;;0.80;;
73675;SDS011;61975;48.660;10.164;2023-09-19T10:34:49;2.67;;;1.00;;
73675;SDS011;61975;48.660;10.164;2023-09-19T10:37:18;2.15;;;0.77;;
73675;SDS011;61975;48.660;10.164;2023-09-19T10:39:47;2.67;;;0.90;;
73675;SDS011;61975;48.660;10.164;2023-09-19T10:42:16;2.30;;;0.80;;
73675;SDS011;61975;48.660;10.164;2023-09-19T10:44:45;2.47;;;0.85;;
73675;SDS011;61975;48.660;10.164;2023-09-19T10:47:12;2.60;;;0.85;;
73675;SDS011;61975;48.660;10.164;2023-09-19T10:49:45;3.35;;;1.10;;
73675;SDS011;61975;48.660;10.164;2023-09-19T10:52:12;2.30;;;0.90;;
73675;SDS011;61975;48.660;10.164;2023-09-19T10:54:45;3.03;;;0.80;;
73675;SDS011;61975;48.660;10.164;2023-09-19T10:57:23;2.83;;;0.70;;
73675;SDS011;61975;48.660;10.164;2023-09-19T11:00:05;3.05;;;1.00;;
73675;SDS011;61975;48.660;10.164;2023-09-19T11:03:05;3.10;;;1.00;;
73675;SDS011;61975;48.660;10.164;2023-09-19T11:05:34;3.13;;;0.90;;
73675;SDS011;61975;48.660;10.164;2023-09-19T11:08:00;2.43;;;0.80;;
73675;SDS011;61975;48.660;10.164;2023-09-19T11:13:31;2.50;;;0.90;;
73675;SDS011;61975;48.660;10.164;2023-09-19T11:21:52;2.95;;;0.90;;
73675;SDS011;61975;48.660;10.164;2023-09-19T11:27:10;3.28;;;0.90;;
73675;SDS011;61975;48.660;10.164;2023-09-19T11:29:38;3.08;;;0.95;;
73675;SDS011;61975;48.660;10.164;2023-09-19T11:32:05;2.70;;;1.00;;
73675;SDS011;61975;48.660;10.164;2023-09-19T11:40:04;2.92;;;1.00;;
73675;SDS011;61975;48.660;10.164;2023-09-19T11:42:45;2.90;;;0.95;;
73675;SDS011;61975;48.660;10.164;2023-09-19T11:48:05;2.33;;;0.80;;
73675;SDS011;61975;48.660;10.164;2023-09-19T11:50:32;3.45;;;1.00;;
73675;SDS011;61975;48.660;10.164;2023-09-19T11:53:01;3.33;;;0.85;;
73675;SDS011;61975;48.660;10.164;2023-09-19T11:55:29;2.63;;;0.80;;
73675;SDS011;61975;48.660;10.164;2023-09-19T11:57:57;2.30;;;0.80;;
73675;SDS011;61975;48.660;10.164;2023-09-19T12:00:24;2.25;;;0.80;;
73675;SDS011;61975;48.660;10.164;2023-09-19T12:02:52;2.47;;;0.80;;
73675;SDS011;61975;48.660;10.164;2023-09-19T12:05:29;1.90;;;0.68;;
73675;SDS011;61975;48.660;10.164;2023-09-19T12:07:54;2.83;;;0.90;;
73675;SDS011;61975;48.660;10.164;2023-09-19T12:10:20;2.50;;;0.87;;
73675;SDS011;61975;48.660;10.164;2023-09-19T12:12:48;2.78;;;0.90;;
73675;SDS011;61975;48.660;10.164;2023-09-19T12:15:14;2.73;;;0.90;;
73675;SDS011;61975;48.660;10.164;2023-09-19T12:17:40;2.50;;;0.90;;
73675;SDS011;61975;48.660;10.164;2023-09-19T12:20:07;2.95;;;0.90;;
73675;SDS011;61975;48.660;10.164;2023-09-19T12:22:40;3.07;;;0.80;;
73675;SDS011;61975;48.660;10.164;2023-09-19T12:25:06;2.83;;;0.90;;
73675;SDS011;61975;48.660;10.164;2023-09-19T12:27:46;2.55;;;0.80;;
73675;SDS011;61975;48.660;10.164;2023-09-19T12:30:16;2.72;;;1.00;;
73675;SDS011;61975;48.660;10.164;2023-09-19T12:32:46;3.03;;;0.80;;
73675;SDS011;61975;48.660;10.164;2023-09-19T12:35:29;2.75;;;0.70;;
73675;SDS011;61975;48.660;10.164;2023-09-19T12:38:00;2.47;;;1.02;;
73675;SDS011;61975;48.660;10.164;2023-09-19T12:40:26;2.60;;;1.00;;
73675;SDS011;61975;48.660;10.164;2023-09-19T12:42:58;2.53;;;0.90;;
73675;SDS011;61975;48.660;10.164;2023-09-19T12:45:24;2.90;;;1.00;;
73675;SDS011;61975;48.660;10.164;2023-09-19T12:53:41;2.20;;;0.88;;
73675;SDS011;61975;48.660;10.164;2023-09-19T12:56:14;3.22;;;0.80;;
73675;SDS011;61975;48.660;10.164;2023-09-19T12:58:52;4.30;;;0.87;;
73675;SDS011;61975;48.660;10.164;2023-09-19T13:01:24;3.13;;;0.63;;
73675;SDS011;61975;48.660;10.164;2023-09-19T13:06:45;2.35;;;0.80;;
73675;SDS011;61975;48.660;10.164;2023-09-19T13:09:13;2.05;;;0.73;;
73675;SDS011;61975;48.660;10.164;2023-09-19T13:11:40;2.40;;;0.80;;
73675;SDS011;61975;48.660;10.164;2023-09-19T13:14:17;2.33;;;0.70;;
73675;SDS011;61975;48.660;10.164;2023-09-19T13:16:57;2.70;;;0.77;;
73675;SDS011;61975;48.660;10.164;2023-09-19T13:22:35;2.40;;;0.80;;
73675;SDS011;61975;48.660;10.164;2023-09-19T13:25:19;2.80;;;0.87;;
73675;SDS011;61975;48.660;10.164;2023-09-19T13:27:52;2.55;;;0.70;;
73675;SDS011;61975;48.660;10.164;2023-09-19T13:30:20;2.63;;;0.90;;
73675;SDS011;61975;48.660;10.164;2023-09-19T13:32:47;2.60;;;0.63;;
73675;SDS011;61975;48.660;10.164;2023-09-19T13:35:13;2.20;;;0.70;;
73675;SDS011;61975;48.660;10.164;2023-09-19T13:37:39;3.13;;;1.03;;
73675;SDS011;61975;48.660;10.164;2023-09-19T13:40:12;2.50;;;0.88;;
73675;SDS011;61975;48.660;10.164;2023-09-19T13:42:39;2.50;;;0.80;;
73675;SDS011;61975;48.660;10.164;2023-09-19T13:45:05;4.63;;;1.10;;
73675;SDS011;61975;48.660;10.164;2023-09-19T13:47:31;3.17;;;0.90;;
73675;SDS011;61975;48.660;10.164;2023-09-19T13:49:58;2.90;;;0.82;;
73675;SDS011;61975;48.660;10.164;2023-09-19T13:52:24;2.60;;;0.82;;
73675;SDS011;61975;48.660;10.164;2023-09-19T13:54:52;2.50;;;0.90;;
73675;SDS011;61975;48.660;10.164;2023-09-19T13:57:18;2.40;;;0.80;;
73675;SDS011;61975;48.660;10.164;2023-09-19T13:59:43;4.30;;;1.00;;
73675;SDS011;61975;48.660;10.164;2023-09-19T14:02:09;2.50;;;0.73;;
73675;SDS011;61975;48.660;10.164;2023-09-19T14:04:35;2.13;;;0.80;;
73675;SDS011;61975;48.660;10.164;2023-09-19T14:07:00;2.70;;;0.70;;
73675;SDS011;61975;48.660;10.164;2023-09-19T14:09:27;3.28;;;0.80;;
73675;SDS011;61975;48.660;10.164;2023-09-19T14:11:52;2.23;;;0.80;;
73675;SDS011;61975;48.660;10.164;2023-09-19T14:14:21;2.10;;;0.82;;
73675;SDS011;61975;48.660;10.164;2023-09-19T14:16:49;2.83;;;1.00;;
73675;SDS011;61975;48.660;10.164;2023-09-19T14:19:14;2.40;;;0.87;;
73675;SDS011;61975;48.660;10.164;2023-09-19T14:21:41;2.58;;;0.90;;
73675;SDS011;61975;48.660;10.164;2023-09-19T14:24:07;4.20;;;1.10;;
73675;SDS011;61975;48.660;10.164;2023-09-19T14:26:36;2.35;;;0.80;;
73675;SDS011;61975;48.660;10.164;2023-09-19T14:29:02;2.10;;;0.70;;
73675;SDS011;61975;48.660;10.164;2023-09-19T14:31:27;2.20;;;0.73;;
73675;SDS011;61975;48.660;10.164;2023-09-19T14:33:56;2.08;;;0.80;;
73675;SDS011;61975;48.660;10.164;2023-09-19T14:36:24;2.58;;;0.90;;
73675;SDS011;61975;48.660;10.164;2023-09-19T14:38:52;3.47;;;1.00;;
73675;SDS011;61975;48.660;10.164;2023-09-19T14:41:22;2.88;;;1.00;;
73675;SDS011;61975;48.660;10.164;2023-09-19T14:43:50;2.33;;;0.98;;
73675;SDS011;61975;48.660;10.164;2023-09-19T14:46:16;2.40;;;0.90;;
73675;SDS011;61975;48.660;10.164;2023-09-19T14:48:44;2.65;;;0.93;;
73675;SDS011;61975;48.660;10.164;2023-09-19T14:51:12;2.40;;;0.90;;
73675;SDS011;61975;48.660;10.164;2023-09-19T14:53:38;2.60;;;1.00;;
73675;SDS011;61975;48.660;10.164;2023-09-19T14:56:04;2.50;;;1.00;;
73675;SDS011;61975;48.660;10.164;2023-09-19T14:58:32;2.35;;;1.00;;
73675;SDS011;61975;48.660;10.164;2023-09-19T15:01:11;3.80;;;1.10;;
73675;SDS011;61975;48.660;10.164;2023-09-19T15:03:38;6.88;;;1.10;;
73675;SDS011;61975;48.660;10.164;2023-09-19T15:06:05;2.60;;;1.10;;
73675;SDS011;61975;48.660;10.164;2023-09-19T15:08:34;2.72;;;1.20;;
73675;SDS011;61975;48.660;10.164;2023-09-19T15:11:03;3.05;;;1.30;;
73675;SDS011;61975;48.660;10.164;2023-09-19T15:13:30;3.13;;;1.00;;
73675;SDS011;61975;48.660;10.164;2023-09-19T15:15:59;2.47;;;1.10;;
73675;SDS011;61975;48.660;10.164;2023-09-19T15:18:26;2.40;;;1.10;;
73675;SDS011;61975;48.660;10.164;2023-09-19T15:20:52;2.60;;;1.10;;
73675;SDS011;61975;48.660;10.164;2023-09-19T15:23:18;3.03;;;1.07;;
73675;SDS011;61975;48.660;10.164;2023-09-19T15:25:50;2.77;;;1.10;;
73675;SDS011;61975;48.660;10.164;2023-09-19T15:28:16;2.30;;;1.00;;
73675;SDS011;61975;48.660;10.164;2023-09-19T15:30:41;2.70;;;0.83;;
73675;SDS011;61975;48.660;10.164;2023-09-19T15:33:07;3.33;;;1.25;;
73675;SDS011;61975;48.660;10.164;2023-09-19T15:35:32;2.87;;;1.00;;
73675;SDS011;61975;48.660;10.164;2023-09-19T15:37:57;3.17;;;0.90;;
73675;SDS011;61975;48.660;10.164;2023-09-19T15:40:25;2.60;;;0.90;;
73675;SDS011;61975;48.660;10.164;2023-09-19T15:42:52;3.13;;;1.20;;
73675;SDS011;61975;48.660;10.164;2023-09-19T15:45:19;14.77;;;2.80;;